sensor_id;sensor_type;location;lat;lon;timestamp;P1;durP1;ratioP1;P2;durP2;ratioP2
12222;SDS011;6174;49.058;8.524;2023-10-13T05:02:51;9.33;;;5.40;;
12222;SDS011;6174;49.058;8.524;2023-10-13T05:05:35;8.73;;;5.87;;
12222;SDS011;6174;49.058;8.524;2023-10-13T05:08:33;7.50;;;6.37;;
12222;SDS011;6174;49.058;8.524;2023-10-13T05:11:18;8.40;;;5.97;;
12222;SDS011;6174;49.058;8.524;2023-10-13T05:14:02;8.50;;;5.53;;
12222;SDS011;6174;49.058;8.524;2023-10-13T05:16:46;7.37;;;5.40;;
12222;SDS011;6174;49.058;8.524;2023-10-13T05:19:33;6.87;;;5.23;;
12222;SDS011;6174;49.058;8.524;2023-10-13T05:22:17;6.57;;;5.13;;
12222;SDS011;6174;49.058;8.524;2023-10-13T05:25:01;6.20;;;4.80;;
12222;SDS011;6174;49.058;8.524;2023-10-13T05:27:45;7.83;;;4.87;;
12222;SDS011;6174;49.058;8.524;2023-10-13T05:30:32;7.60;;;5.27;;
12222;SDS011;6174;49.058;8.524;2023-10-13T05:33:16;9.77;;;5.00;;
12222;SDS011;6174;49.058;8.524;2023-10-13T05:36:10;5.97;;;4.70;;
12222;SDS011;6174;49.058;8.524;2023-10-13T05:38:54;7.53;;;5.43;;
12222;SDS011;6174;49.058;8.524;2023-10-13T05:41:38;7.53;;;5.90;;
12222;SDS011;6174;49.058;8.524;2023-10-13T05:44:22;10.97;;;6.43;;
12222;SDS011;6174;49.058;8.524;2023-10-13T05:47:13;6.50;;;5.40;;
12222;SDS011;6174;49.058;8.524;2023-10-13T05:50:05;7.17;;;5.30;;
12222;SDS011;6174;49.058;8.524;2023-10-13T05:52:55;7.93;;;5.30;;
12222;SDS011;6174;49.058;8.524;2023-10-13T05:55:39;5.83;;;5.20;;
12222;SDS011;6174;49.058;8.524;2023-10-13T05:58:23;5.87;;;4.97;;
12222;SDS011;6174;49.058;8.524;2023-10-13T06:01:11;8.80;;;5.67;;
12222;SDS011;6174;49.058;8.524;2023-10-13T06:03:56;7.10;;;5.43;;
12222;SDS011;6174;49.058;8.524;2023-10-13T06:06:40;7.77;;;4.80;;
12222;SDS011;6174;49.058;8.524;2023-10-13T06:09:31;7.70;;;5.30;;
12222;SDS011;6174;49.058;8.524;2023-10-13T06:12:15;9.87;;;5.40;;
12222;SDS011;6174;49.058;8.524;2023-10-13T06:15:14;9.20;;;5.30;;
12222;SDS011;6174;49.058;8.524;2023-10-13T06:17:59;8.03;;;5.20;;
12222;SDS011;6174;49.058;8.524;2023-10-13T06:20:51;9.00;;;5.27;;
12222;SDS011;6174;49.058;8.524;2023-10-13T06:23:36;7.13;;;4.67;;
12222;SDS011;6174;49.058;8.524;2023-10-13T06:26:21;12.00;;;5.53;;
12222;SDS011;6174;49.058;8.524;2023-10-13T06:29:05;7.73;;;5.10;;
12222;SDS011;6174;49.058;8.524;2023-10-13T06:31:32;8.40;;;4.97;;
12222;SDS011;6174;49.058;8.524;2023-10-13T06:34:00;7.67;;;5.07;;
12222;SDS011;6174;49.058;8.524;2023-10-13T06:36:28;7.33;;;4.77;;
12222;SDS011;6174;49.058;8.524;2023-10-13T06:38:55;8.47;;;4.90;;
12222;SDS011;6174;49.058;8.524;2023-10-13T06:41:45;5.80;;;4.87;;
12222;SDS011;6174;49.058;8.524;2023-10-13T06:44:11;7.90;;;5.43;;
12222;SDS011;6174;49.058;8.524;2023-10-13T06:46:41;10.97;;;5.73;;
12222;SDS011;6174;49.058;8.524;2023-10-13T06:49:09;8.83;;;4.90;;
12222;SDS011;6174;49.058;8.524;2023-10-13T06:51:38;11.13;;;5.20;;
12222;SDS011;6174;49.058;8.524;2023-10-13T06:54:05;7.27;;;4.90;;
12222;SDS011;6174;49.058;8.524;2023-10-13T06:56:45;7.40;;;5.00;;
12222;SDS011;6174;49.058;8.524;2023-10-13T06:59:17;7.87;;;4.60;;
12222;SDS011;6174;49.058;8.524;2023-10-13T07:01:44;7.03;;;4.77;;
12222;SDS011;6174;49.058;8.524;2023-10-13T07:04:13;6.57;;;4.37;;
12222;SDS011;6174;49.058;8.524;2023-10-13T07:06:41;9.20;;;4.97;;
12222;SDS011;6174;49.058;8.524;2023-10-13T07:09:14;6.10;;;4.57;;
12222;SDS011;6174;49.058;8.524;2023-10-13T07:12:00;5.93;;;4.43;;
12222;SDS011;6174;49.058;8.524;2023-10-13T07:14:27;5.87;;;4.23;;
12222;SDS011;6174;49.058;8.524;2023-10-13T07:17:00;7.00;;;4.50;;
12222;SDS011;6174;49.058;8.524;2023-10-13T07:19:30;7.37;;;5.07;;
12222;SDS011;6174;49.058;8.524;2023-10-13T07:21:59;7.50;;;4.83;;
12222;SDS011;6174;49.058;8.524;2023-10-13T07:24:44;7.20;;;4.80;;
12222;SDS011;6174;49.058;8.524;2023-10-13T07:27:14;7.57;;;4.67;;
12222;SDS011;6174;49.058;8.524;2023-10-13T07:29:47;6.80;;;4.43;;
12222;SDS011;6174;49.058;8.524;2023-10-13T07:32:20;5.87;;;4.90;;
12222;SDS011;6174;49.058;8.524;2023-10-13T07:34:51;7.67;;;4.43;;
12222;SDS011;6174;49.058;8.524;2023-10-13T07:37:20;9.17;;;5.00;;
12222;SDS011;6174;49.058;8.524;2023-10-13T07:39:50;8.70;;;4.73;;
12222;SDS011;6174;49.058;8.524;2023-10-13T07:42:19;8.77;;;4.60;;
12222;SDS011;6174;49.058;8.524;2023-10-13T07:44:47;5.57;;;4.50;;
12222;SDS011;6174;49.058;8.524;2023-10-13T07:47:14;6.47;;;4.30;;
12222;SDS011;6174;49.058;8.524;2023-10-13T07:49:43;5.60;;;4.50;;
12222;SDS011;6174;49.058;8.524;2023-10-13T07:52:11;6.07;;;4.63;;
12222;SDS011;6174;49.058;8.524;2023-10-13T07:54:49;7.97;;;5.10;;
12222;SDS011;6174;49.058;8.524;2023-10-13T07:57:26;5.93;;;4.97;;
12222;SDS011;6174;49.058;8.524;2023-10-13T07:59:55;8.60;;;4.83;;
12222;SDS011;6174;49.058;8.524;2023-10-13T08:02:35;8.23;;;4.83;;
12222;SDS011;6174;49.058;8.524;2023-10-13T08:05:14;8.03;;;4.60;;
12222;SDS011;6174;49.058;8.524;2023-10-13T08:07:50;7.43;;;4.90;;
12222;SDS011;6174;49.058;8.524;2023-10-13T08:10:18;8.50;;;4.90;;
12222;SDS011;6174;49.058;8.524;2023-10-13T08:12:51;5.67;;;4.80;;
12222;SDS011;6174;49.058;8.524;2023-10-13T08:15:21;9.37;;;4.87;;
12222;SDS011;6174;49.058;8.524;2023-10-13T08:17:57;6.10;;;4.20;;
12222;SDS011;6174;49.058;8.524;2023-10-13T08:20:28;8.03;;;4.37;;
12222;SDS011;6174;49.058;8.524;2023-10-13T08:23:02;6.97;;;4.50;;
12222;SDS011;6174;49.058;8.524;2023-10-13T08:25:38;6.40;;;3.83;;
12222;SDS011;6174;49.058;8.524;2023-10-13T08:28:20;9.33;;;4.50;;
12222;SDS011;6174;49.058;8.524;2023-10-13T08:31:07;6.77;;;5.23;;
12222;SDS011;6174;49.058;8.524;2023-10-13T08:33:47;6.03;;;4.53;;
12222;SDS011;6174;49.058;8.524;2023-10-13T08:36:14;9.47;;;4.30;;
12222;SDS011;6174;49.058;8.524;2023-10-13T08:38:54;7.87;;;4.60;;
12222;SDS011;6174;49.058;8.524;2023-10-13T08:41:40;8.00;;;4.67;;
12222;SDS011;6174;49.058;8.524;2023-10-13T08:44:20;9.83;;;4.27;;
12222;SDS011;6174;49.058;8.524;2023-10-13T08:46:58;8.80;;;4.63;;
12222;SDS011;6174;49.058;8.524;2023-10-13T08:49:32;5.37;;;4.40;;
12222;SDS011;6174;49.058;8.524;2023-10-13T08:52:05;6.23;;;4.53;;
12222;SDS011;6174;49.058;8.524;2023-10-13T08:54:55;8.53;;;4.50;;
12222;SDS011;6174;49.058;8.524;2023-10-13T08:57:50;8.30;;;4.67;;
12222;SDS011;6174;49.058;8.524;2023-10-13T09:00:20;7.70;;;4.97;;
12222;SDS011;6174;49.058;8.524;2023-10-13T09:02:59;7.93;;;4.43;;
12222;SDS011;6174;49.058;8.524;2023-10-13T09:05:51;7.90;;;4.50;;
12222;SDS011;6174;49.058;8.524;2023-10-13T09:08:27;6.20;;;4.20;;
12222;SDS011;6174;49.058;8.524;2023-10-13T09:11:01;5.10;;;4.37;;
12222;SDS011;6174;49.058;8.524;2023-10-13T09:13:36;5.13;;;4.30;;
12222;SDS011;6174;49.058;8.524;2023-10-13T09:16:10;6.60;;;4.57;;
12222;SDS011;6174;49.058;8.524;2023-10-13T09:18:46;9.80;;;4.50;;
12222;SDS011;6174;49.058;8.524;2023-10-13T09:21:14;9.63;;;4.73;;
12222;SDS011;6174;49.058;8.524;2023-10-13T09:23:59;7.50;;;4.30;;
12222;SDS011;6174;49.058;8.524;2023-10-13T09:26:43;7.23;;;4.23;;
12222;SDS011;6174;49.058;8.524;2023-10-13T09:29:16;6.97;;;4.30;;
12222;SDS011;6174;49.058;8.524;2023-10-13T09:31:45;8.33;;;4.03;;
12222;SDS011;6174;49.058;8.524;2023-10-13T09:34:20;7.80;;;3.97;;
12222;SDS011;6174;49.058;8.524;2023-10-13T09:36:48;9.43;;;4.13;;
12222;SDS011;6174;49.058;8.524;2023-10-13T09:39:21;5.33;;;3.77;;
12222;SDS011;6174;49.058;8.524;2023-10-13T09:42:00;4.90;;;3.90;;
12222;SDS011;6174;49.058;8.524;2023-10-13T09:44:26;8.03;;;3.70;;
12222;SDS011;6174;49.058;8.524;2023-10-13T09:46:57;9.73;;;4.00;;
12222;SDS011;6174;49.058;8.524;2023-10-13T09:49:34;6.63;;;4.17;;
12222;SDS011;6174;49.058;8.524;2023-10-13T09:52:13;8.53;;;4.07;;
12222;SDS011;6174;49.058;8.524;2023-10-13T09:54:48;6.70;;;3.70;;
12222;SDS011;6174;49.058;8.524;2023-10-13T09:57:28;5.50;;;3.97;;
12222;SDS011;6174;49.058;8.524;2023-10-13T10:00:06;5.50;;;3.80;;
12222;SDS011;6174;49.058;8.524;2023-10-13T10:02:56;6.43;;;3.60;;
12222;SDS011;6174;49.058;8.524;2023-10-13T10:05:24;7.27;;;3.43;;
12222;SDS011;6174;49.058;8.524;2023-10-13T10:07:54;9.38;;;3.63;;
12222;SDS011;6174;49.058;8.524;2023-10-13T10:10:21;6.85;;;3.70;;
12222;SDS011;6174;49.058;8.524;2023-10-13T10:12:50;4.95;;;3.28;;
12222;SDS011;6174;49.058;8.524;2023-10-13T10:15:32;6.00;;;3.60;;
12222;SDS011;6174;49.058;8.524;2023-10-13T10:18:17;6.18;;;4.13;;
12222;SDS011;6174;49.058;8.524;2023-10-13T10:20:49;7.25;;;3.60;;
12222;SDS011;6174;49.058;8.524;2023-10-13T10:23:23;5.95;;;3.22;;
12222;SDS011;6174;49.058;8.524;2023-10-13T10:25:52;6.93;;;3.55;;
12222;SDS011;6174;49.058;8.524;2023-10-13T10:28:34;9.30;;;3.47;;
12222;SDS011;6174;49.058;8.524;2023-10-13T10:31:04;8.50;;;3.63;;
12222;SDS011;6174;49.058;8.524;2023-10-13T10:33:39;7.80;;;3.65;;
12222;SDS011;6174;49.058;8.524;2023-10-13T10:36:06;9.13;;;3.60;;
12222;SDS011;6174;49.058;8.524;2023-10-13T10:38:50;6.75;;;3.70;;
12222;SDS011;6174;49.058;8.524;2023-10-13T10:41:25;4.70;;;3.30;;
12222;SDS011;6174;49.058;8.524;2023-10-13T10:44:06;7.82;;;3.63;;
12222;SDS011;6174;49.058;8.524;2023-10-13T10:46:40;5.38;;;3.35;;
12222;SDS011;6174;49.058;8.524;2023-10-13T10:49:18;8.32;;;3.30;;
12222;SDS011;6174;49.058;8.524;2023-10-13T10:51:52;5.18;;;3.30;;
12222;SDS011;6174;49.058;8.524;2023-10-13T10:54:26;3.30;;;3.00;;
12222;SDS011;6174;49.058;8.524;2023-10-13T10:56:56;4.53;;;3.47;;
12222;SDS011;6174;49.058;8.524;2023-10-13T10:59:35;6.05;;;3.40;;
12222;SDS011;6174;49.058;8.524;2023-10-13T11:02:03;4.38;;;3.28;;
12222;SDS011;6174;49.058;8.524;2023-10-13T11:04:35;4.97;;;3.38;;
12222;SDS011;6174;49.058;8.524;2023-10-13T11:07:20;5.93;;;3.35;;
12222;SDS011;6174;49.058;8.524;2023-10-13T11:09:48;5.63;;;3.47;;
12222;SDS011;6174;49.058;8.524;2023-10-13T11:12:18;4.43;;;3.33;;
12222;SDS011;6174;49.058;8.524;2023-10-13T11:15:02;6.00;;;3.33;;
12222;SDS011;6174;49.058;8.524;2023-10-13T11:17:37;5.45;;;3.05;;
12222;SDS011;6174;49.058;8.524;2023-10-13T11:20:11;3.95;;;3.20;;
12222;SDS011;6174;49.058;8.524;2023-10-13T11:22:45;7.10;;;3.20;;
12222;SDS011;6174;49.058;8.524;2023-10-13T11:25:19;8.18;;;4.03;;
12222;SDS011;6174;49.058;8.524;2023-10-13T11:27:48;7.80;;;3.63;;
12222;SDS011;6174;49.058;8.524;2023-10-13T11:30:31;5.03;;;3.00;;
12222;SDS011;6174;49.058;8.524;2023-10-13T11:33:07;4.60;;;3.38;;
12222;SDS011;6174;49.058;8.524;2023-10-13T11:35:37;5.82;;;3.20;;
12222;SDS011;6174;49.058;8.524;2023-10-13T11:38:23;5.68;;;3.08;;
12222;SDS011;6174;49.058;8.524;2023-10-13T11:40:52;6.07;;;3.20;;
12222;SDS011;6174;49.058;8.524;2023-10-13T11:43:37;5.68;;;3.47;;
12222;SDS011;6174;49.058;8.524;2023-10-13T11:46:18;9.63;;;3.75;;
12222;SDS011;6174;49.058;8.524;2023-10-13T11:49:05;5.88;;;3.45;;
12222;SDS011;6174;49.058;8.524;2023-10-13T11:51:43;5.88;;;3.20;;
12222;SDS011;6174;49.058;8.524;2023-10-13T11:54:11;6.63;;;3.33;;
12222;SDS011;6174;49.058;8.524;2023-10-13T11:56:40;5.25;;;3.15;;
12222;SDS011;6174;49.058;8.524;2023-10-13T11:59:07;5.00;;;2.97;;
12222;SDS011;6174;49.058;8.524;2023-10-13T12:01:41;7.03;;;3.70;;
12222;SDS011;6174;49.058;8.524;2023-10-13T12:04:28;7.80;;;3.50;;
12222;SDS011;6174;49.058;8.524;2023-10-13T12:07:07;6.63;;;3.22;;
12222;SDS011;6174;49.058;8.524;2023-10-13T12:09:45;6.13;;;3.47;;
12222;SDS011;6174;49.058;8.524;2023-10-13T12:12:31;7.82;;;3.40;;
12222;SDS011;6174;49.058;8.524;2023-10-13T12:15:05;5.45;;;3.40;;
12222;SDS011;6174;49.058;8.524;2023-10-13T12:17:39;4.97;;;3.70;;
12222;SDS011;6174;49.058;8.524;2023-10-13T12:20:10;3.45;;;3.15;;
12222;SDS011;6174;49.058;8.524;2023-10-13T12:22:44;5.15;;;3.15;;
12222;SDS011;6174;49.058;8.524;2023-10-13T12:25:20;4.85;;;3.28;;
12222;SDS011;6174;49.058;8.524;2023-10-13T12:27:59;8.95;;;4.13;;
12222;SDS011;6174;49.058;8.524;2023-10-13T12:30:37;6.43;;;3.30;;
12222;SDS011;6174;49.058;8.524;2023-10-13T12:33:13;7.53;;;3.85;;
12222;SDS011;6174;49.058;8.524;2023-10-13T12:35:48;3.78;;;3.08;;
12222;SDS011;6174;49.058;8.524;2023-10-13T12:38:29;6.03;;;3.30;;
12222;SDS011;6174;49.058;8.524;2023-10-13T12:41:10;6.38;;;3.60;;
12222;SDS011;6174;49.058;8.524;2023-10-13T12:43:57;8.07;;;3.70;;
12222;SDS011;6174;49.058;8.524;2023-10-13T12:46:38;5.63;;;3.35;;
12222;SDS011;6174;49.058;8.524;2023-10-13T12:49:22;6.57;;;3.70;;
12222;SDS011;6174;49.058;8.524;2023-10-13T12:52:04;4.32;;;3.20;;
12222;SDS011;6174;49.058;8.524;2023-10-13T12:54:42;6.25;;;3.47;;
12222;SDS011;6174;49.058;8.524;2023-10-13T12:57:13;6.63;;;3.70;;
12222;SDS011;6174;49.058;8.524;2023-10-13T12:59:40;7.03;;;3.50;;
12222;SDS011;6174;49.058;8.524;2023-10-13T13:02:07;6.07;;;3.35;;
12222;SDS011;6174;49.058;8.524;2023-10-13T13:04:39;5.38;;;3.40;;
12222;SDS011;6174;49.058;8.524;2023-10-13T13:07:09;9.80;;;3.60;;
12222;SDS011;6174;49.058;8.524;2023-10-13T13:09:38;5.38;;;3.40;;
12222;SDS011;6174;49.058;8.524;2023-10-13T13:12:07;5.95;;;3.38;;
12222;SDS011;6174;49.058;8.524;2023-10-13T13:14:37;4.57;;;3.35;;
12222;SDS011;6174;49.058;8.524;2023-10-13T13:17:06;7.70;;;3.05;;
12222;SDS011;6174;49.058;8.524;2023-10-13T13:19:33;4.53;;;2.83;;
12222;SDS011;6174;49.058;8.524;2023-10-13T13:22:04;6.13;;;3.42;;
12222;SDS011;6174;49.058;8.524;2023-10-13T13:24:37;6.53;;;3.70;;
12222;SDS011;6174;49.058;8.524;2023-10-13T13:27:09;6.80;;;3.47;;
12222;SDS011;6174;49.058;8.524;2023-10-13T13:29:39;4.18;;;3.47;;
12222;SDS011;6174;49.058;8.524;2023-10-13T13:32:06;5.13;;;3.35;;
12222;SDS011;6174;49.058;8.524;2023-10-13T13:34:42;5.82;;;3.13;;
12222;SDS011;6174;49.058;8.524;2023-10-13T13:37:09;4.18;;;3.47;;
12222;SDS011;6174;49.058;8.524;2023-10-13T13:39:37;4.10;;;3.20;;
12222;SDS011;6174;49.058;8.524;2023-10-13T13:42:09;3.63;;;3.20;;
12222;SDS011;6174;49.058;8.524;2023-10-13T13:44:42;6.55;;;3.40;;
12222;SDS011;6174;49.058;8.524;2023-10-13T13:47:11;5.80;;;3.25;;
12222;SDS011;6174;49.058;8.524;2023-10-13T13:49:38;5.38;;;3.45;;
12222;SDS011;6174;49.058;8.524;2023-10-13T13:52:06;4.75;;;2.80;;
12222;SDS011;6174;49.058;8.524;2023-10-13T13:54:33;4.47;;;3.00;;
12222;SDS011;6174;49.058;8.524;2023-10-13T13:57:00;5.70;;;3.22;;
12222;SDS011;6174;49.058;8.524;2023-10-13T13:59:34;5.22;;;3.08;;
12222;SDS011;6174;49.058;8.524;2023-10-13T14:02:01;4.88;;;3.33;;
12222;SDS011;6174;49.058;8.524;2023-10-13T14:04:44;4.53;;;3.20;;
12222;SDS011;6174;49.058;8.524;2023-10-13T14:07:11;5.43;;;3.40;;
12222;SDS011;6174;49.058;8.524;2023-10-13T14:09:40;4.63;;;3.30;;
12222;SDS011;6174;49.058;8.524;2023-10-13T14:12:10;4.10;;;3.40;;
12222;SDS011;6174;49.058;8.524;2023-10-13T14:15:10;4.75;;;3.50;;
12222;SDS011;6174;49.058;8.524;2023-10-13T14:17:48;4.65;;;3.35;;
12222;SDS011;6174;49.058;8.524;2023-10-13T14:20:15;4.75;;;3.17;;
12222;SDS011;6174;49.058;8.524;2023-10-13T14:22:45;6.22;;;3.22;;
12222;SDS011;6174;49.058;8.524;2023-10-13T14:25:13;5.35;;;3.15;;
12222;SDS011;6174;49.058;8.524;2023-10-13T14:27:40;5.57;;;2.95;;
12222;SDS011;6174;49.058;8.524;2023-10-13T14:30:07;4.97;;;3.13;;
12222;SDS011;6174;49.058;8.524;2023-10-13T14:32:36;3.70;;;3.15;;
12222;SDS011;6174;49.058;8.524;2023-10-13T14:35:05;6.22;;;3.20;;
12222;SDS011;6174;49.058;8.524;2023-10-13T14:37:39;4.82;;;3.75;;
12222;SDS011;6174;49.058;8.524;2023-10-13T14:40:07;5.18;;;3.10;;
12222;SDS011;6174;49.058;8.524;2023-10-13T14:42:38;5.30;;;3.10;;
12222;SDS011;6174;49.058;8.524;2023-10-13T14:45:05;5.00;;;3.00;;
12222;SDS011;6174;49.058;8.524;2023-10-13T14:47:39;5.30;;;3.00;;
12222;SDS011;6174;49.058;8.524;2023-10-13T14:50:06;4.38;;;3.33;;
12222;SDS011;6174;49.058;8.524;2023-10-13T14:52:39;3.88;;;2.95;;
12222;SDS011;6174;49.058;8.524;2023-10-13T14:55:08;5.68;;;3.20;;
12222;SDS011;6174;49.058;8.524;2023-10-13T14:57:43;6.38;;;3.40;;
12222;SDS011;6174;49.058;8.524;2023-10-13T15:00:11;5.95;;;3.45;;
12222;SDS011;6174;49.058;8.524;2023-10-13T15:02:41;3.67;;;3.10;;
12222;SDS011;6174;49.058;8.524;2023-10-13T15:05:08;5.68;;;3.30;;
12222;SDS011;6174;49.058;8.524;2023-10-13T15:07:41;4.60;;;3.00;;
12222;SDS011;6174;49.058;8.524;2023-10-13T15:10:10;4.43;;;3.03;;
12222;SDS011;6174;49.058;8.524;2023-10-13T15:12:40;5.90;;;3.22;;
12222;SDS011;6174;49.058;8.524;2023-10-13T15:15:07;4.18;;;3.08;;
12222;SDS011;6174;49.058;8.524;2023-10-13T15:17:38;5.50;;;2.85;;
12222;SDS011;6174;49.058;8.524;2023-10-13T15:20:07;6.38;;;3.05;;
12222;SDS011;6174;49.058;8.524;2023-10-13T15:22:35;3.83;;;2.90;;
12222;SDS011;6174;49.058;8.524;2023-10-13T15:25:03;3.58;;;2.97;;
12222;SDS011;6174;49.058;8.524;2023-10-13T15:27:42;4.45;;;3.13;;
12222;SDS011;6174;49.058;8.524;2023-10-13T15:30:15;5.88;;;3.08;;
12222;SDS011;6174;49.058;8.524;2023-10-13T15:32:50;5.60;;;3.00;;
12222;SDS011;6174;49.058;8.524;2023-10-13T15:35:18;4.28;;;3.05;;
12222;SDS011;6174;49.058;8.524;2023-10-13T15:37:48;5.13;;;3.50;;
12222;SDS011;6174;49.058;8.524;2023-10-13T15:40:16;6.55;;;3.08;;
12222;SDS011;6174;49.058;8.524;2023-10-13T15:42:43;7.50;;;3.00;;
12222;SDS011;6174;49.058;8.524;2023-10-13T15:45:11;4.28;;;3.03;;
12222;SDS011;6174;49.058;8.524;2023-10-13T15:47:42;4.72;;;2.80;;
12222;SDS011;6174;49.058;8.524;2023-10-13T15:50:12;6.97;;;3.00;;
12222;SDS011;6174;49.058;8.524;2023-10-13T15:52:43;6.75;;;2.78;;
12222;SDS011;6174;49.058;8.524;2023-10-13T15:55:11;4.63;;;2.40;;
12222;SDS011;6174;49.058;8.524;2023-10-13T15:57:39;5.30;;;2.60;;
12222;SDS011;6174;49.058;8.524;2023-10-13T16:00:07;4.50;;;2.63;;
12222;SDS011;6174;49.058;8.524;2023-10-13T16:02:49;5.22;;;2.67;;
12222;SDS011;6174;49.058;8.524;2023-10-13T16:05:18;3.28;;;2.78;;
12222;SDS011;6174;49.058;8.524;2023-10-13T16:07:47;4.32;;;3.03;;
12222;SDS011;6174;49.058;8.524;2023-10-13T16:10:16;5.05;;;2.85;;
12222;SDS011;6174;49.058;8.524;2023-10-13T16:12:43;5.43;;;2.83;;
12222;SDS011;6174;49.058;8.524;2023-10-13T16:15:10;2.85;;;2.55;;
12222;SDS011;6174;49.058;8.524;2023-10-13T16:17:38;5.63;;;2.78;;
12222;SDS011;6174;49.058;8.524;2023-10-13T16:20:06;4.10;;;2.40;;
12222;SDS011;6174;49.058;8.524;2023-10-13T16:22:42;4.78;;;2.50;;
12222;SDS011;6174;49.058;8.524;2023-10-13T16:25:10;5.05;;;2.53;;
12222;SDS011;6174;49.058;8.524;2023-10-13T16:27:37;5.10;;;2.47;;
12222;SDS011;6174;49.058;8.524;2023-10-13T16:30:08;3.70;;;2.60;;
12222;SDS011;6174;49.058;8.524;2023-10-13T16:32:35;8.43;;;2.90;;
12222;SDS011;6174;49.058;8.524;2023-10-13T16:35:03;3.80;;;2.80;;
12222;SDS011;6174;49.058;8.524;2023-10-13T16:37:31;4.63;;;3.47;;
12222;SDS011;6174;49.058;8.524;2023-10-13T16:40:00;3.25;;;2.72;;
12222;SDS011;6174;49.058;8.524;2023-10-13T16:42:30;4.15;;;3.00;;
12222;SDS011;6174;49.058;8.524;2023-10-13T16:44:59;4.40;;;2.67;;
12222;SDS011;6174;49.058;8.524;2023-10-13T16:47:39;5.80;;;2.42;;
12222;SDS011;6174;49.058;8.524;2023-10-13T16:50:08;4.93;;;2.72;;
12222;SDS011;6174;49.058;8.524;2023-10-13T16:52:36;4.72;;;3.17;;
12222;SDS011;6174;49.058;8.524;2023-10-13T16:55:05;7.75;;;2.95;;
12222;SDS011;6174;49.058;8.524;2023-10-13T16:57:34;5.50;;;3.40;;
12222;SDS011;6174;49.058;8.524;2023-10-13T17:00:02;6.00;;;3.08;;
12222;SDS011;6174;49.058;8.524;2023-10-13T17:54:20;5.35;;;3.00;;
12222;SDS011;6174;49.058;8.524;2023-10-13T17:56:47;4.17;;;2.73;;
12222;SDS011;6174;49.058;8.524;2023-10-13T17:59:14;3.78;;;3.10;;
12222;SDS011;6174;49.058;8.524;2023-10-13T18:01:43;4.27;;;2.83;;
12222;SDS011;6174;49.058;8.524;2023-10-13T18:04:13;5.23;;;3.00;;
12222;SDS011;6174;49.058;8.524;2023-10-13T18:06:40;4.55;;;2.67;;
12222;SDS011;6174;49.058;8.524;2023-10-13T18:09:07;5.72;;;2.88;;
12222;SDS011;6174;49.058;8.524;2023-10-13T18:11:37;3.72;;;2.67;;
12222;SDS011;6174;49.058;8.524;2023-10-13T18:14:07;4.03;;;2.70;;
12222;SDS011;6174;49.058;8.524;2023-10-13T18:16:36;6.07;;;3.00;;
12222;SDS011;6174;49.058;8.524;2023-10-13T18:19:03;4.20;;;3.13;;
12222;SDS011;6174;49.058;8.524;2023-10-13T18:21:33;4.30;;;2.90;;
12222;SDS011;6174;49.058;8.524;2023-10-13T18:24:01;4.60;;;2.90;;
12222;SDS011;6174;49.058;8.524;2023-10-13T18:26:28;5.90;;;2.97;;
12222;SDS011;6174;49.058;8.524;2023-10-13T18:28:56;4.30;;;3.40;;
12222;SDS011;6174;49.058;8.524;2023-10-13T18:31:23;6.73;;;3.37;;
12222;SDS011;6174;49.058;8.524;2023-10-13T18:33:53;3.37;;;2.80;;
12222;SDS011;6174;49.058;8.524;2023-10-13T18:36:23;6.07;;;3.20;;
12222;SDS011;6174;49.058;8.524;2023-10-13T18:38:54;7.50;;;3.10;;
12222;SDS011;6174;49.058;8.524;2023-10-13T18:41:22;4.53;;;2.60;;
12222;SDS011;6174;49.058;8.524;2023-10-13T18:43:49;4.13;;;2.77;;
12222;SDS011;6174;49.058;8.524;2023-10-13T18:46:18;5.93;;;3.30;;
12222;SDS011;6174;49.058;8.524;2023-10-13T18:48:49;4.93;;;3.10;;
12222;SDS011;6174;49.058;8.524;2023-10-13T18:51:16;4.37;;;2.83;;
12222;SDS011;6174;49.058;8.524;2023-10-13T18:53:44;5.03;;;3.10;;
12222;SDS011;6174;49.058;8.524;2023-10-13T18:56:13;4.90;;;2.83;;
12222;SDS011;6174;49.058;8.524;2023-10-13T18:58:41;4.80;;;2.90;;
12222;SDS011;6174;49.058;8.524;2023-10-13T19:01:10;4.83;;;3.10;;
12222;SDS011;6174;49.058;8.524;2023-10-13T19:03:43;3.23;;;2.60;;
12222;SDS011;6174;49.058;8.524;2023-10-13T19:06:13;6.47;;;3.13;;
12222;SDS011;6174;49.058;8.524;2023-10-13T19:08:41;4.40;;;3.00;;
12222;SDS011;6174;49.058;8.524;2023-10-13T19:11:08;7.73;;;2.80;;
12222;SDS011;6174;49.058;8.524;2023-10-13T19:13:36;3.97;;;3.27;;
12222;SDS011;6174;49.058;8.524;2023-10-13T19:16:04;2.80;;;2.50;;
12222;SDS011;6174;49.058;8.524;2023-10-13T19:18:32;4.67;;;2.70;;
12222;SDS011;6174;49.058;8.524;2023-10-13T19:21:02;3.63;;;2.70;;
12222;SDS011;6174;49.058;8.524;2023-10-13T19:23:30;5.13;;;2.70;;
12222;SDS011;6174;49.058;8.524;2023-10-13T19:25:56;4.00;;;2.70;;
12222;SDS011;6174;49.058;8.524;2023-10-13T19:28:23;4.87;;;2.43;;
12222;SDS011;6174;49.058;8.524;2023-10-13T19:30:51;2.97;;;2.60;;
12222;SDS011;6174;49.058;8.524;2023-10-13T19:33:20;2.93;;;2.40;;
12222;SDS011;6174;49.058;8.524;2023-10-13T19:35:47;2.50;;;2.30;;
12222;SDS011;6174;49.058;8.524;2023-10-13T19:38:16;3.73;;;2.70;;
12222;SDS011;6174;49.058;8.524;2023-10-13T19:40:43;5.47;;;2.90;;
12222;SDS011;6174;49.058;8.524;2023-10-13T19:43:10;4.30;;;2.70;;
12222;SDS011;6174;49.058;8.524;2023-10-13T19:45:40;3.00;;;2.67;;
12222;SDS011;6174;49.058;8.524;2023-10-13T19:48:08;4.47;;;2.60;;
12222;SDS011;6174;49.058;8.524;2023-10-13T19:50:35;4.65;;;2.50;;
12222;SDS011;6174;49.058;8.524;2023-10-13T19:53:03;5.03;;;2.90;;
12222;SDS011;6174;49.058;8.524;2023-10-13T19:55:40;3.37;;;2.80;;
12222;SDS011;6174;49.058;8.524;2023-10-13T19:58:08;4.37;;;2.63;;
12222;SDS011;6174;49.058;8.524;2023-10-13T20:00:35;4.17;;;2.80;;
12222;SDS011;6174;49.058;8.524;2023-10-13T20:03:02;4.63;;;2.83;;
12222;SDS011;6174;49.058;8.524;2023-10-13T20:05:33;4.57;;;2.70;;
12222;SDS011;6174;49.058;8.524;2023-10-13T20:08:00;6.53;;;3.00;;
12222;SDS011;6174;49.058;8.524;2023-10-13T20:10:30;3.77;;;2.40;;
12222;SDS011;6174;49.058;8.524;2023-10-13T20:13:02;3.75;;;2.60;;
12222;SDS011;6174;49.058;8.524;2023-10-13T20:15:29;4.68;;;2.53;;
12222;SDS011;6174;49.058;8.524;2023-10-13T20:17:57;3.10;;;2.80;;
12222;SDS011;6174;49.058;8.524;2023-10-13T20:20:24;3.67;;;2.17;;
12222;SDS011;6174;49.058;8.524;2023-10-13T20:22:53;3.22;;;2.40;;
12222;SDS011;6174;49.058;8.524;2023-10-13T20:25:20;3.20;;;2.65;;
12222;SDS011;6174;49.058;8.524;2023-10-13T20:27:49;3.25;;;2.50;;
12222;SDS011;6174;49.058;8.524;2023-10-13T20:30:18;4.07;;;2.50;;
12222;SDS011;6174;49.058;8.524;2023-10-13T20:32:46;2.97;;;2.50;;
12222;SDS011;6174;49.058;8.524;2023-10-13T20:35:13;4.78;;;2.60;;
12222;SDS011;6174;49.058;8.524;2023-10-13T20:37:43;3.10;;;2.70;;
12222;SDS011;6174;49.058;8.524;2023-10-13T20:40:10;4.53;;;2.78;;
12222;SDS011;6174;49.058;8.524;2023-10-13T20:42:47;4.80;;;2.75;;
12222;SDS011;6174;49.058;8.524;2023-10-13T20:45:15;4.03;;;2.60;;
12222;SDS011;6174;49.058;8.524;2023-10-13T20:47:50;5.15;;;2.70;;
12222;SDS011;6174;49.058;8.524;2023-10-13T20:50:17;2.88;;;2.55;;
12222;SDS011;6174;49.058;8.524;2023-10-13T20:52:45;3.40;;;3.03;;
12222;SDS011;6174;49.058;8.524;2023-10-13T20:55:14;4.55;;;2.80;;
12222;SDS011;6174;49.058;8.524;2023-10-13T20:57:42;3.15;;;2.55;;
12222;SDS011;6174;49.058;8.524;2023-10-13T21:00:10;3.70;;;2.90;;
12222;SDS011;6174;49.058;8.524;2023-10-13T21:02:44;4.55;;;3.05;;
12222;SDS011;6174;49.058;8.524;2023-10-13T21:05:13;4.38;;;3.17;;
12222;SDS011;6174;49.058;8.524;2023-10-13T21:07:40;5.22;;;2.70;;
12222;SDS011;6174;49.058;8.524;2023-10-13T21:10:08;3.35;;;3.05;;
